sensor_id;sensor_type;location;lat;lon;timestamp;temperature;humidity
78550;DHT22;68091;52.130;5.570;2023-03-01T00:01:50;-2.20;80.70
78550;DHT22;68091;52.130;5.570;2023-03-01T00:04:16;-2.30;81.00
78550;DHT22;68091;52.130;5.570;2023-03-01T00:06:45;-2.30;81.10
78550;DHT22;68091;52.130;5.570;2023-03-01T00:09:16;-2.30;81.40
78550;DHT22;68091;52.130;5.570;2023-03-01T00:11:43;-2.40;81.70
78550;DHT22;68091;52.130;5.570;2023-03-01T00:14:12;-2.30;81.90
78550;DHT22;68091;52.130;5.570;2023-03-01T00:16:40;-2.30;82.10
78550;DHT22;68091;52.130;5.570;2023-03-01T00:19:11;-2.30;81.80
78550;DHT22;68091;52.130;5.570;2023-03-01T00:21:37;-2.30;81.20
78550;DHT22;68091;52.130;5.570;2023-03-01T00:24:03;-2.40;81.20
78550;DHT22;68091;52.130;5.570;2023-03-01T00:26:29;-2.40;81.20
78550;DHT22;68091;52.130;5.570;2023-03-01T00:28:57;-2.40;81.20
78550;DHT22;68091;52.130;5.570;2023-03-01T00:31:28;-2.50;81.30
78550;DHT22;68091;52.130;5.570;2023-03-01T00:33:58;-2.50;81.40
78550;DHT22;68091;52.130;5.570;2023-03-01T00:36:33;-2.60;81.40
78550;DHT22;68091;52.130;5.570;2023-03-01T00:38:59;-2.60;81.60
78550;DHT22;68091;52.130;5.570;2023-03-01T00:41:25;-2.70;81.70
78550;DHT22;68091;52.130;5.570;2023-03-01T00:43:52;-2.70;82.20
78550;DHT22;68091;52.130;5.570;2023-03-01T00:46:26;-2.60;82.40
78550;DHT22;68091;52.130;5.570;2023-03-01T00:48:53;-2.50;82.80
78550;DHT22;68091;52.130;5.570;2023-03-01T00:51:22;-2.50;82.60
78550;DHT22;68091;52.130;5.570;2023-03-01T00:53:51;-2.50;82.00
78550;DHT22;68091;52.130;5.570;2023-03-01T00:56:17;-2.60;81.70
78550;DHT22;68091;52.130;5.570;2023-03-01T00:58:46;-2.60;82.30
78550;DHT22;68091;52.130;5.570;2023-03-01T01:01:30;-2.60;82.10
78550;DHT22;68091;52.130;5.570;2023-03-01T01:06:27;-2.70;81.60
78550;DHT22;68091;52.130;5.570;2023-03-01T01:08:54;-2.70;81.70
78550;DHT22;68091;52.130;5.570;2023-03-01T01:11:21;-2.70;81.50
78550;DHT22;68091;52.130;5.570;2023-03-01T01:13:48;-2.80;81.50
78550;DHT22;68091;52.130;5.570;2023-03-01T01:16:15;-2.80;81.90
78550;DHT22;68091;52.130;5.570;2023-03-01T01:18:41;-2.70;81.70
78550;DHT22;68091;52.130;5.570;2023-03-01T01:21:10;-2.80;81.70
78550;DHT22;68091;52.130;5.570;2023-03-01T01:23:37;-2.80;81.60
78550;DHT22;68091;52.130;5.570;2023-03-01T01:26:15;-2.80;81.40
78550;DHT22;68091;52.130;5.570;2023-03-01T01:28:41;-2.80;81.60
78550;DHT22;68091;52.130;5.570;2023-03-01T01:31:08;-2.90;81.40
78550;DHT22;68091;52.130;5.570;2023-03-01T01:33:34;-2.90;81.60
78550;DHT22;68091;52.130;5.570;2023-03-01T01:35:59;-2.90;81.50
78550;DHT22;68091;52.130;5.570;2023-03-01T01:38:25;-3.00;81.60
78550;DHT22;68091;52.130;5.570;2023-03-01T01:40:51;-3.00;81.80
78550;DHT22;68091;52.130;5.570;2023-03-01T01:43:21;-3.10;82.20
78550;DHT22;68091;52.130;5.570;2023-03-01T01:45:47;-3.10;82.40
78550;DHT22;68091;52.130;5.570;2023-03-01T01:48:19;-3.10;82.40
78550;DHT22;68091;52.130;5.570;2023-03-01T01:50:47;-3.00;82.80
78550;DHT22;68091;52.130;5.570;2023-03-01T01:53:16;-3.00;82.70
78550;DHT22;68091;52.130;5.570;2023-03-01T01:55:52;-3.10;83.20
78550;DHT22;68091;52.130;5.570;2023-03-01T01:58:20;-3.10;82.30
78550;DHT22;68091;52.130;5.570;2023-03-01T02:00:47;-3.20;82.40
78550;DHT22;68091;52.130;5.570;2023-03-01T02:03:20;-3.20;83.40
78550;DHT22;68091;52.130;5.570;2023-03-01T02:06:00;-3.20;82.70
78550;DHT22;68091;52.130;5.570;2023-03-01T02:08:35;-3.20;83.50
78550;DHT22;68091;52.130;5.570;2023-03-01T02:11:02;-3.00;83.20
78550;DHT22;68091;52.130;5.570;2023-03-01T02:13:33;-3.20;83.50
78550;DHT22;68091;52.130;5.570;2023-03-01T02:15:59;-3.20;83.50
78550;DHT22;68091;52.130;5.570;2023-03-01T02:18:27;-3.30;83.30
78550;DHT22;68091;52.130;5.570;2023-03-01T02:21:23;-3.10;83.40
78550;DHT22;68091;52.130;5.570;2023-03-01T02:23:53;-3.30;83.40
78550;DHT22;68091;52.130;5.570;2023-03-01T02:26:25;-3.30;83.70
78550;DHT22;68091;52.130;5.570;2023-03-01T02:28:55;-3.20;83.90
78550;DHT22;68091;52.130;5.570;2023-03-01T02:31:21;-3.10;84.10
78550;DHT22;68091;52.130;5.570;2023-03-01T02:34:17;-3.10;84.00
78550;DHT22;68091;52.130;5.570;2023-03-01T02:36:47;-3.10;83.90
78550;DHT22;68091;52.130;5.570;2023-03-01T02:39:17;-3.10;83.80
78550;DHT22;68091;52.130;5.570;2023-03-01T02:41:50;-3.20;83.40
78550;DHT22;68091;52.130;5.570;2023-03-01T02:44:22;-3.20;83.20
78550;DHT22;68091;52.130;5.570;2023-03-01T02:46:54;-3.50;82.90
78550;DHT22;68091;52.130;5.570;2023-03-01T02:49:27;-3.30;82.90
78550;DHT22;68091;52.130;5.570;2023-03-01T02:57:34;-3.40;83.20
78550;DHT22;68091;52.130;5.570;2023-03-01T03:00:07;-3.50;83.20
78550;DHT22;68091;52.130;5.570;2023-03-01T03:02:35;-3.40;83.60
78550;DHT22;68091;52.130;5.570;2023-03-01T03:05:16;-3.40;83.60
78550;DHT22;68091;52.130;5.570;2023-03-01T03:07:44;-3.40;84.10
78550;DHT22;68091;52.130;5.570;2023-03-01T03:10:15;-3.30;84.40
78550;DHT22;68091;52.130;5.570;2023-03-01T03:12:41;-3.30;84.60
78550;DHT22;68091;52.130;5.570;2023-03-01T03:15:09;-3.40;84.50
78550;DHT22;68091;52.130;5.570;2023-03-01T03:17:39;-3.40;84.30
78550;DHT22;68091;52.130;5.570;2023-03-01T03:20:07;-3.40;84.30
78550;DHT22;68091;52.130;5.570;2023-03-01T03:22:38;-3.50;84.00
78550;DHT22;68091;52.130;5.570;2023-03-01T03:25:05;-3.50;84.00
78550;DHT22;68091;52.130;5.570;2023-03-01T03:27:42;-3.60;83.80
78550;DHT22;68091;52.130;5.570;2023-03-01T03:30:14;-3.60;83.90
78550;DHT22;68091;52.130;5.570;2023-03-01T03:32:41;-3.60;84.00
78550;DHT22;68091;52.130;5.570;2023-03-01T03:35:09;-3.60;84.30
78550;DHT22;68091;52.130;5.570;2023-03-01T03:37:41;-3.60;84.20
78550;DHT22;68091;52.130;5.570;2023-03-01T03:40:26;-3.70;84.00
78550;DHT22;68091;52.130;5.570;2023-03-01T03:42:55;-3.70;84.00
78550;DHT22;68091;52.130;5.570;2023-03-01T03:45:21;-3.80;83.90
78550;DHT22;68091;52.130;5.570;2023-03-01T03:47:47;-3.80;84.00
78550;DHT22;68091;52.130;5.570;2023-03-01T03:50:15;-3.70;84.60
78550;DHT22;68091;52.130;5.570;2023-03-01T03:52:42;-3.70;84.60
78550;DHT22;68091;52.130;5.570;2023-03-01T03:55:11;-3.70;84.70
78550;DHT22;68091;52.130;5.570;2023-03-01T03:57:40;-3.80;84.70
78550;DHT22;68091;52.130;5.570;2023-03-01T04:00:08;-3.70;84.80
78550;DHT22;68091;52.130;5.570;2023-03-01T04:02:41;-3.80;84.50
78550;DHT22;68091;52.130;5.570;2023-03-01T04:05:13;-3.70;84.40
78550;DHT22;68091;52.130;5.570;2023-03-01T04:07:40;-3.70;84.30
78550;DHT22;68091;52.130;5.570;2023-03-01T04:10:09;-3.80;84.10
78550;DHT22;68091;52.130;5.570;2023-03-01T04:12:36;-3.80;84.30
78550;DHT22;68091;52.130;5.570;2023-03-01T04:15:03;-3.80;84.40
78550;DHT22;68091;52.130;5.570;2023-03-01T04:17:42;-3.90;84.30
78550;DHT22;68091;52.130;5.570;2023-03-01T04:20:15;-3.90;84.50
78550;DHT22;68091;52.130;5.570;2023-03-01T04:22:50;-3.90;84.80
78550;DHT22;68091;52.130;5.570;2023-03-01T04:25:16;-3.90;84.70
78550;DHT22;68091;52.130;5.570;2023-03-01T04:27:42;-3.90;84.70
78550;DHT22;68091;52.130;5.570;2023-03-01T04:30:11;-3.90;84.80
78550;DHT22;68091;52.130;5.570;2023-03-01T04:32:47;-3.90;84.80
78550;DHT22;68091;52.130;5.570;2023-03-01T04:35:13;-3.90;84.50
78550;DHT22;68091;52.130;5.570;2023-03-01T04:37:39;-4.00;84.40
78550;DHT22;68091;52.130;5.570;2023-03-01T04:40:07;-4.10;84.40
78550;DHT22;68091;52.130;5.570;2023-03-01T04:42:39;-4.10;84.60
78550;DHT22;68091;52.130;5.570;2023-03-01T04:45:05;-4.10;84.80
78550;DHT22;68091;52.130;5.570;2023-03-01T04:47:40;-4.10;84.80
78550;DHT22;68091;52.130;5.570;2023-03-01T04:50:06;-4.00;84.90
78550;DHT22;68091;52.130;5.570;2023-03-01T04:52:33;-4.00;85.10
78550;DHT22;68091;52.130;5.570;2023-03-01T04:54:59;-4.10;84.80
78550;DHT22;68091;52.130;5.570;2023-03-01T04:57:27;-4.10;84.90
78550;DHT22;68091;52.130;5.570;2023-03-01T04:59:53;-4.10;85.00
78550;DHT22;68091;52.130;5.570;2023-03-01T05:02:19;-4.10;85.20
78550;DHT22;68091;52.130;5.570;2023-03-01T05:04:44;-4.10;85.50
78550;DHT22;68091;52.130;5.570;2023-03-01T05:07:10;-4.10;85.60
78550;DHT22;68091;52.130;5.570;2023-03-01T05:09:38;-4.10;85.50
78550;DHT22;68091;52.130;5.570;2023-03-01T05:12:07;-4.00;85.80
78550;DHT22;68091;52.130;5.570;2023-03-01T05:14:33;-4.00;85.90
78550;DHT22;68091;52.130;5.570;2023-03-01T05:16:58;-4.00;85.70
78550;DHT22;68091;52.130;5.570;2023-03-01T05:19:29;-4.10;85.30
78550;DHT22;68091;52.130;5.570;2023-03-01T05:21:57;-4.20;85.00
78550;DHT22;68091;52.130;5.570;2023-03-01T05:24:33;-4.20;84.70
78550;DHT22;68091;52.130;5.570;2023-03-01T05:27:10;-4.30;84.60
78550;DHT22;68091;52.130;5.570;2023-03-01T05:29:37;-4.30;85.10
78550;DHT22;68091;52.130;5.570;2023-03-01T05:32:04;-4.30;85.10
78550;DHT22;68091;52.130;5.570;2023-03-01T05:34:32;-4.40;85.10
78550;DHT22;68091;52.130;5.570;2023-03-01T05:36:58;-4.40;85.10
78550;DHT22;68091;52.130;5.570;2023-03-01T05:39:29;-4.50;85.30
78550;DHT22;68091;52.130;5.570;2023-03-01T05:41:59;-4.40;85.50
78550;DHT22;68091;52.130;5.570;2023-03-01T05:44:26;-4.50;85.20
78550;DHT22;68091;52.130;5.570;2023-03-01T05:46:52;-4.50;85.40
78550;DHT22;68091;52.130;5.570;2023-03-01T05:49:18;-4.50;85.60
78550;DHT22;68091;52.130;5.570;2023-03-01T05:51:48;-4.50;85.80
78550;DHT22;68091;52.130;5.570;2023-03-01T05:54:15;-4.50;86.10
78550;DHT22;68091;52.130;5.570;2023-03-01T05:56:41;-4.40;86.60
78550;DHT22;68091;52.130;5.570;2023-03-01T05:59:13;-4.40;86.50
78550;DHT22;68091;52.130;5.570;2023-03-01T06:01:42;-4.50;86.10
78550;DHT22;68091;52.130;5.570;2023-03-01T06:04:08;-4.50;86.00
78550;DHT22;68091;52.130;5.570;2023-03-01T06:06:42;-4.40;86.30
78550;DHT22;68091;52.130;5.570;2023-03-01T06:09:08;-4.40;86.50
78550;DHT22;68091;52.130;5.570;2023-03-01T06:11:36;-4.40;86.30
78550;DHT22;68091;52.130;5.570;2023-03-01T06:14:03;-4.50;86.20
78550;DHT22;68091;52.130;5.570;2023-03-01T06:16:29;-4.50;86.00
78550;DHT22;68091;52.130;5.570;2023-03-01T06:18:55;-4.50;86.00
78550;DHT22;68091;52.130;5.570;2023-03-01T06:21:20;-4.60;86.00
78550;DHT22;68091;52.130;5.570;2023-03-01T06:23:49;-4.50;86.10
78550;DHT22;68091;52.130;5.570;2023-03-01T06:26:15;-4.20;86.70
78550;DHT22;68091;52.130;5.570;2023-03-01T06:28:41;-4.40;86.40
78550;DHT22;68091;52.130;5.570;2023-03-01T06:31:07;-4.40;86.40
78550;DHT22;68091;52.130;5.570;2023-03-01T06:33:34;-4.40;86.10
78550;DHT22;68091;52.130;5.570;2023-03-01T06:36:09;-4.40;86.00
78550;DHT22;68091;52.130;5.570;2023-03-01T06:38:38;-4.50;86.20
78550;DHT22;68091;52.130;5.570;2023-03-01T06:41:06;-4.30;86.50
78550;DHT22;68091;52.130;5.570;2023-03-01T06:43:35;-4.30;86.00
78550;DHT22;68091;52.130;5.570;2023-03-01T06:46:05;-4.30;86.00
78550;DHT22;68091;52.130;5.570;2023-03-01T06:48:32;-4.30;85.90
78550;DHT22;68091;52.130;5.570;2023-03-01T06:51:00;-3.80;85.90
78550;DHT22;68091;52.130;5.570;2023-03-01T06:53:29;-4.40;85.40
78550;DHT22;68091;52.130;5.570;2023-03-01T06:55:56;-4.30;85.50
78550;DHT22;68091;52.130;5.570;2023-03-01T06:58:22;-4.30;85.60
78550;DHT22;68091;52.130;5.570;2023-03-01T07:00:48;-4.30;85.60
78550;DHT22;68091;52.130;5.570;2023-03-01T07:03:14;-4.30;85.70
78550;DHT22;68091;52.130;5.570;2023-03-01T07:05:43;-4.20;85.90
78550;DHT22;68091;52.130;5.570;2023-03-01T07:08:10;-4.20;86.00
78550;DHT22;68091;52.130;5.570;2023-03-01T07:10:39;-4.10;86.10
78550;DHT22;68091;52.130;5.570;2023-03-01T07:13:24;-4.10;86.10
78550;DHT22;68091;52.130;5.570;2023-03-01T07:15:50;-3.90;86.40
78550;DHT22;68091;52.130;5.570;2023-03-01T07:18:16;-3.90;86.10
78550;DHT22;68091;52.130;5.570;2023-03-01T07:20:42;-3.90;86.30
78550;DHT22;68091;52.130;5.570;2023-03-01T07:23:10;-3.80;86.70
78550;DHT22;68091;52.130;5.570;2023-03-01T07:25:36;-3.60;87.00
78550;DHT22;68091;52.130;5.570;2023-03-01T07:28:02;-3.50;86.90
78550;DHT22;68091;52.130;5.570;2023-03-01T07:30:28;-3.40;87.00
78550;DHT22;68091;52.130;5.570;2023-03-01T07:33:00;-3.10;87.60
78550;DHT22;68091;52.130;5.570;2023-03-01T07:35:29;-3.10;87.50
78550;DHT22;68091;52.130;5.570;2023-03-01T07:37:57;-2.90;87.40
78550;DHT22;68091;52.130;5.570;2023-03-01T07:40:23;-2.70;87.70
78550;DHT22;68091;52.130;5.570;2023-03-01T07:42:49;-2.60;87.00
78550;DHT22;68091;52.130;5.570;2023-03-01T07:45:15;-2.30;86.20
78550;DHT22;68091;52.130;5.570;2023-03-01T07:47:41;-2.20;85.90
78550;DHT22;68091;52.130;5.570;2023-03-01T07:50:07;-2.20;85.50
78550;DHT22;68091;52.130;5.570;2023-03-01T07:52:33;-2.10;85.30
78550;DHT22;68091;52.130;5.570;2023-03-01T07:54:59;-2.00;84.90
78550;DHT22;68091;52.130;5.570;2023-03-01T07:57:25;-1.90;84.60
78550;DHT22;68091;52.130;5.570;2023-03-01T07:59:51;-1.80;84.40
78550;DHT22;68091;52.130;5.570;2023-03-01T08:02:16;-1.80;83.80
78550;DHT22;68091;52.130;5.570;2023-03-01T08:04:42;-1.80;83.80
78550;DHT22;68091;52.130;5.570;2023-03-01T08:07:11;-1.70;83.60
78550;DHT22;68091;52.130;5.570;2023-03-01T08:09:41;-1.50;83.00
78550;DHT22;68091;52.130;5.570;2023-03-01T08:12:12;-1.20;83.10
78550;DHT22;68091;52.130;5.570;2023-03-01T08:14:42;-0.70;80.60
78550;DHT22;68091;52.130;5.570;2023-03-01T08:17:14;-0.70;79.40
78550;DHT22;68091;52.130;5.570;2023-03-01T08:19:40;-0.60;79.20
78550;DHT22;68091;52.130;5.570;2023-03-01T08:22:06;-0.60;78.70
78550;DHT22;68091;52.130;5.570;2023-03-01T08:24:32;-0.60;78.90
78550;DHT22;68091;52.130;5.570;2023-03-01T08:26:58;-0.50;79.20
78550;DHT22;68091;52.130;5.570;2023-03-01T08:29:23;-0.40;79.30
78550;DHT22;68091;52.130;5.570;2023-03-01T08:31:52;0.00;79.00
78550;DHT22;68091;52.130;5.570;2023-03-01T08:34:18;-0.10;78.70
78550;DHT22;68091;52.130;5.570;2023-03-01T08:36:45;0.10;78.10
78550;DHT22;68091;52.130;5.570;2023-03-01T08:39:14;0.40;76.90
78550;DHT22;68091;52.130;5.570;2023-03-01T08:41:40;0.70;76.90
78550;DHT22;68091;52.130;5.570;2023-03-01T08:44:07;0.90;75.10
78550;DHT22;68091;52.130;5.570;2023-03-01T08:46:38;0.90;74.80
78550;DHT22;68091;52.130;5.570;2023-03-01T08:49:16;1.00;74.00
78550;DHT22;68091;52.130;5.570;2023-03-01T08:51:43;1.10;73.80
78550;DHT22;68091;52.130;5.570;2023-03-01T08:54:15;1.20;73.30
78550;DHT22;68091;52.130;5.570;2023-03-01T08:56:42;1.50;72.80
78550;DHT22;68091;52.130;5.570;2023-03-01T08:59:09;1.60;72.10
78550;DHT22;68091;52.130;5.570;2023-03-01T09:01:35;1.80;72.20
78550;DHT22;68091;52.130;5.570;2023-03-01T09:04:03;1.90;71.10
78550;DHT22;68091;52.130;5.570;2023-03-01T09:06:33;2.00;71.50
78550;DHT22;68091;52.130;5.570;2023-03-01T09:08:59;2.30;70.80
78550;DHT22;68091;52.130;5.570;2023-03-01T09:11:28;2.30;70.80
78550;DHT22;68091;52.130;5.570;2023-03-01T09:13:55;2.50;70.70
78550;DHT22;68091;52.130;5.570;2023-03-01T09:16:21;2.50;69.50
78550;DHT22;68091;52.130;5.570;2023-03-01T09:18:52;2.60;69.70
78550;DHT22;68091;52.130;5.570;2023-03-01T09:21:19;2.60;70.60
78550;DHT22;68091;52.130;5.570;2023-03-01T09:23:47;2.70;70.30
78550;DHT22;68091;52.130;5.570;2023-03-01T09:26:18;3.00;69.00
78550;DHT22;68091;52.130;5.570;2023-03-01T09:28:45;3.10;68.70
78550;DHT22;68091;52.130;5.570;2023-03-01T09:31:12;3.30;68.30
78550;DHT22;68091;52.130;5.570;2023-03-01T09:33:39;3.60;66.00
78550;DHT22;68091;52.130;5.570;2023-03-01T09:36:14;3.70;65.10
78550;DHT22;68091;52.130;5.570;2023-03-01T09:38:40;3.80;62.60
78550;DHT22;68091;52.130;5.570;2023-03-01T09:41:46;4.10;62.10
78550;DHT22;68091;52.130;5.570;2023-03-01T09:44:34;4.30;61.50
78550;DHT22;68091;52.130;5.570;2023-03-01T09:47:02;4.40;60.10
78550;DHT22;68091;52.130;5.570;2023-03-01T09:49:30;4.30;61.70
78550;DHT22;68091;52.130;5.570;2023-03-01T09:52:09;4.50;60.60
78550;DHT22;68091;52.130;5.570;2023-03-01T09:54:38;4.60;59.80
78550;DHT22;68091;52.130;5.570;2023-03-01T09:57:26;4.60;60.40
78550;DHT22;68091;52.130;5.570;2023-03-01T10:00:04;4.70;59.50
78550;DHT22;68091;52.130;5.570;2023-03-01T10:05:25;4.90;58.50
78550;DHT22;68091;52.130;5.570;2023-03-01T10:10:43;5.20;57.00
78550;DHT22;68091;52.130;5.570;2023-03-01T10:13:24;5.30;55.90
78550;DHT22;68091;52.130;5.570;2023-03-01T10:15:57;5.40;55.80
78550;DHT22;68091;52.130;5.570;2023-03-01T10:18:30;5.50;56.10
78550;DHT22;68091;52.130;5.570;2023-03-01T10:21:05;5.50;55.00
78550;DHT22;68091;52.130;5.570;2023-03-01T10:23:34;5.60;55.00
78550;DHT22;68091;52.130;5.570;2023-03-01T10:26:38;5.80;54.80
78550;DHT22;68091;52.130;5.570;2023-03-01T10:29:08;5.70;54.10
78550;DHT22;68091;52.130;5.570;2023-03-01T10:31:44;5.80;54.10
78550;DHT22;68091;52.130;5.570;2023-03-01T10:34:17;5.80;53.30
78550;DHT22;68091;52.130;5.570;2023-03-01T10:36:47;6.10;52.40
78550;DHT22;68091;52.130;5.570;2023-03-01T10:39:22;5.80;52.00
78550;DHT22;68091;52.130;5.570;2023-03-01T10:44:49;6.00;52.30
78550;DHT22;68091;52.130;5.570;2023-03-01T10:50:05;6.10;50.20
78550;DHT22;68091;52.130;5.570;2023-03-01T10:52:36;6.00;49.80
78550;DHT22;68091;52.130;5.570;2023-03-01T10:55:26;5.90;50.10
78550;DHT22;68091;52.130;5.570;2023-03-01T10:58:20;6.00;50.00
78550;DHT22;68091;52.130;5.570;2023-03-01T11:03:45;6.20;49.20
78550;DHT22;68091;52.130;5.570;2023-03-01T11:08:45;6.50;49.00
78550;DHT22;68091;52.130;5.570;2023-03-01T11:14:00;6.70;47.80
78550;DHT22;68091;52.130;5.570;2023-03-01T11:16:33;6.60;47.80
78550;DHT22;68091;52.130;5.570;2023-03-01T11:21:47;6.60;47.20
78550;DHT22;68091;52.130;5.570;2023-03-01T11:24:29;6.60;48.60
78550;DHT22;68091;52.130;5.570;2023-03-01T11:26:56;6.90;48.80
78550;DHT22;68091;52.130;5.570;2023-03-01T11:29:44;7.10;48.10
78550;DHT22;68091;52.130;5.570;2023-03-01T11:32:13;7.00;47.20
78550;DHT22;68091;52.130;5.570;2023-03-01T11:35:02;6.80;47.80
78550;DHT22;68091;52.130;5.570;2023-03-01T11:51:40;6.80;48.10
78550;DHT22;68091;52.130;5.570;2023-03-01T11:54:21;6.90;47.60
78550;DHT22;68091;52.130;5.570;2023-03-01T11:57:20;7.00;48.10
78550;DHT22;68091;52.130;5.570;2023-03-01T12:00:03;7.10;47.10
78550;DHT22;68091;52.130;5.570;2023-03-01T12:09:15;6.90;45.90
78550;DHT22;68091;52.130;5.570;2023-03-01T12:12:11;7.00;46.30
78550;DHT22;68091;52.130;5.570;2023-03-01T12:20:42;7.30;45.20
78550;DHT22;68091;52.130;5.570;2023-03-01T12:26:14;7.20;45.90
78550;DHT22;68091;52.130;5.570;2023-03-01T12:40:20;7.40;45.70
78550;DHT22;68091;52.130;5.570;2023-03-01T12:50:59;7.50;45.10
78550;DHT22;68091;52.130;5.570;2023-03-01T12:53:34;7.60;43.50
78550;DHT22;68091;52.130;5.570;2023-03-01T12:56:13;7.70;43.30
78550;DHT22;68091;52.130;5.570;2023-03-01T12:58:58;7.70;43.90
78550;DHT22;68091;52.130;5.570;2023-03-01T13:02:37;7.60;44.40
78550;DHT22;68091;52.130;5.570;2023-03-01T13:04:52;7.80;44.00
78550;DHT22;68091;52.130;5.570;2023-03-01T13:07:37;7.90;43.40
78550;DHT22;68091;52.130;5.570;2023-03-01T13:10:20;7.90;41.80
78550;DHT22;68091;52.130;5.570;2023-03-01T13:23:33;8.50;40.80
78550;DHT22;68091;52.130;5.570;2023-03-01T13:26:14;8.60;41.50
78550;DHT22;68091;52.130;5.570;2023-03-01T13:28:49;8.60;41.00
78550;DHT22;68091;52.130;5.570;2023-03-01T13:36:13;9.40;40.60
78550;DHT22;68091;52.130;5.570;2023-03-01T13:39:00;9.40;41.10
78550;DHT22;68091;52.130;5.570;2023-03-01T13:47:02;10.00;37.90
78550;DHT22;68091;52.130;5.570;2023-03-01T13:49:36;10.50;36.60
78550;DHT22;68091;52.130;5.570;2023-03-01T13:52:25;10.90;38.00
78550;DHT22;68091;52.130;5.570;2023-03-01T13:54:59;11.10;37.20
78550;DHT22;68091;52.130;5.570;2023-03-01T13:57:38;10.80;37.70
78550;DHT22;68091;52.130;5.570;2023-03-01T14:03:14;10.30;35.90
78550;DHT22;68091;52.130;5.570;2023-03-01T14:08:29;9.20;39.80
78550;DHT22;68091;52.130;5.570;2023-03-01T14:19:29;8.30;41.50
78550;DHT22;68091;52.130;5.570;2023-03-01T14:22:01;8.30;41.20
78550;DHT22;68091;52.130;5.570;2023-03-01T14:24:31;8.20;41.10
78550;DHT22;68091;52.130;5.570;2023-03-01T14:27:04;8.10;41.20
78550;DHT22;68091;52.130;5.570;2023-03-01T14:29:40;7.90;42.50
78550;DHT22;68091;52.130;5.570;2023-03-01T14:32:32;7.90;42.80
78550;DHT22;68091;52.130;5.570;2023-03-01T14:34:59;7.80;43.50
78550;DHT22;68091;52.130;5.570;2023-03-01T14:37:34;7.90;43.40
78550;DHT22;68091;52.130;5.570;2023-03-01T14:40:03;7.90;43.00
78550;DHT22;68091;52.130;5.570;2023-03-01T14:42:34;7.80;43.60
78550;DHT22;68091;52.130;5.570;2023-03-01T14:45:02;7.90;44.60
78550;DHT22;68091;52.130;5.570;2023-03-01T14:47:33;8.00;43.90
78550;DHT22;68091;52.130;5.570;2023-03-01T14:50:04;7.80;44.30
78550;DHT22;68091;52.130;5.570;2023-03-01T14:52:41;7.80;45.00
78550;DHT22;68091;52.130;5.570;2023-03-01T14:55:24;7.80;44.20
78550;DHT22;68091;52.130;5.570;2023-03-01T14:57:51;7.70;45.80
78550;DHT22;68091;52.130;5.570;2023-03-01T15:00:29;7.80;44.80
78550;DHT22;68091;52.130;5.570;2023-03-01T15:02:58;7.80;44.20
78550;DHT22;68091;52.130;5.570;2023-03-01T15:05:31;7.80;45.40
78550;DHT22;68091;52.130;5.570;2023-03-01T15:08:00;8.00;45.20
78550;DHT22;68091;52.130;5.570;2023-03-01T15:10:32;7.90;45.10
78550;DHT22;68091;52.130;5.570;2023-03-01T15:13:24;8.10;45.00
78550;DHT22;68091;52.130;5.570;2023-03-01T15:15:51;7.90;44.50
78550;DHT22;68091;52.130;5.570;2023-03-01T15:18:21;7.90;45.10
78550;DHT22;68091;52.130;5.570;2023-03-01T15:20:51;7.90;44.50
78550;DHT22;68091;52.130;5.570;2023-03-01T15:23:36;7.80;44.90
78550;DHT22;68091;52.130;5.570;2023-03-01T15:26:02;7.90;44.10
78550;DHT22;68091;52.130;5.570;2023-03-01T15:28:34;7.80;44.40
78550;DHT22;68091;52.130;5.570;2023-03-01T15:31:07;7.80;44.90
78550;DHT22;68091;52.130;5.570;2023-03-01T15:33:41;7.90;44.70
78550;DHT22;68091;52.130;5.570;2023-03-01T15:36:41;7.80;44.80
78550;DHT22;68091;52.130;5.570;2023-03-01T15:41:51;7.60;45.20
78550;DHT22;68091;52.130;5.570;2023-03-01T15:44:25;7.40;46.10
78550;DHT22;68091;52.130;5.570;2023-03-01T15:46:51;7.50;46.80
78550;DHT22;68091;52.130;5.570;2023-03-01T15:49:40;7.40;47.30
78550;DHT22;68091;52.130;5.570;2023-03-01T15:52:21;7.30;47.70
78550;DHT22;68091;52.130;5.570;2023-03-01T15:54:56;7.30;47.10
78550;DHT22;68091;52.130;5.570;2023-03-01T15:57:22;7.10;47.20
78550;DHT22;68091;52.130;5.570;2023-03-01T15:59:48;6.90;47.00
78550;DHT22;68091;52.130;5.570;2023-03-01T16:02:20;6.90;47.90
78550;DHT22;68091;52.130;5.570;2023-03-01T16:04:52;7.00;47.70
78550;DHT22;68091;52.130;5.570;2023-03-01T16:07:19;7.00;47.50
78550;DHT22;68091;52.130;5.570;2023-03-01T16:09:45;6.90;47.90
78550;DHT22;68091;52.130;5.570;2023-03-01T16:12:15;6.80;47.80
78550;DHT22;68091;52.130;5.570;2023-03-01T16:14:42;6.70;47.90
78550;DHT22;68091;52.130;5.570;2023-03-01T16:17:07;6.60;48.40
78550;DHT22;68091;52.130;5.570;2023-03-01T16:19:36;6.70;48.00
78550;DHT22;68091;52.130;5.570;2023-03-01T16:22:03;6.60;48.70
78550;DHT22;68091;52.130;5.570;2023-03-01T16:24:29;6.60;48.60
78550;DHT22;68091;52.130;5.570;2023-03-01T16:26:55;6.60;49.00
78550;DHT22;68091;52.130;5.570;2023-03-01T16:29:21;6.60;48.80
78550;DHT22;68091;52.130;5.570;2023-03-01T16:31:47;6.60;49.10
78550;DHT22;68091;52.130;5.570;2023-03-01T16:34:13;6.50;49.80
78550;DHT22;68091;52.130;5.570;2023-03-01T16:36:39;6.40;50.40
78550;DHT22;68091;52.130;5.570;2023-03-01T16:39:05;6.40;50.90
78550;DHT22;68091;52.130;5.570;2023-03-01T16:41:31;6.30;51.50
78550;DHT22;68091;52.130;5.570;2023-03-01T16:43:57;6.30;51.80
78550;DHT22;68091;52.130;5.570;2023-03-01T16:46:25;6.20;52.50
78550;DHT22;68091;52.130;5.570;2023-03-01T16:48:58;6.20;52.60
78550;DHT22;68091;52.130;5.570;2023-03-01T16:51:24;6.20;52.70
78550;DHT22;68091;52.130;5.570;2023-03-01T16:53:51;6.10;52.80
78550;DHT22;68091;52.130;5.570;2023-03-01T16:56:18;6.00;53.10
78550;DHT22;68091;52.130;5.570;2023-03-01T16:58:44;5.90;53.40
78550;DHT22;68091;52.130;5.570;2023-03-01T17:01:18;5.80;53.40
78550;DHT22;68091;52.130;5.570;2023-03-01T17:03:47;5.80;53.80
78550;DHT22;68091;52.130;5.570;2023-03-01T17:06:17;5.70;53.70
78550;DHT22;68091;52.130;5.570;2023-03-01T17:08:43;5.60;53.90
78550;DHT22;68091;52.130;5.570;2023-03-01T17:11:17;5.50;54.00
78550;DHT22;68091;52.130;5.570;2023-03-01T17:13:49;5.40;54.20
78550;DHT22;68091;52.130;5.570;2023-03-01T17:16:17;5.20;54.50
78550;DHT22;68091;52.130;5.570;2023-03-01T17:18:47;5.20;54.80
78550;DHT22;68091;52.130;5.570;2023-03-01T17:21:13;5.20;55.00
78550;DHT22;68091;52.130;5.570;2023-03-01T17:23:41;5.10;54.90
78550;DHT22;68091;52.130;5.570;2023-03-01T17:26:08;5.00;55.20
78550;DHT22;68091;52.130;5.570;2023-03-01T17:28:35;4.90;55.20
78550;DHT22;68091;52.130;5.570;2023-03-01T17:31:02;4.80;55.80
78550;DHT22;68091;52.130;5.570;2023-03-01T17:33:29;4.60;55.90
78550;DHT22;68091;52.130;5.570;2023-03-01T17:35:58;4.60;56.20
78550;DHT22;68091;52.130;5.570;2023-03-01T17:38:24;4.60;56.10
78550;DHT22;68091;52.130;5.570;2023-03-01T17:40:51;4.40;56.70
78550;DHT22;68091;52.130;5.570;2023-03-01T17:43:17;4.40;56.60
78550;DHT22;68091;52.130;5.570;2023-03-01T17:45:44;4.40;56.70
78550;DHT22;68091;52.130;5.570;2023-03-01T17:48:13;4.30;56.80
78550;DHT22;68091;52.130;5.570;2023-03-01T17:50:40;4.30;57.10
78550;DHT22;68091;52.130;5.570;2023-03-01T17:53:06;4.10;57.40
78550;DHT22;68091;52.130;5.570;2023-03-01T17:55:38;4.10;57.60
78550;DHT22;68091;52.130;5.570;2023-03-01T17:58:06;4.00;57.60